Sunburst, Montana
Current Conditions -  °F | °C
As of 5:56 AM on Friday 19 Dec 2014 (Local Time) from KCTB Reporting Station
Clear Clear  
Wind Chill: -5°   Ceiling: Unl
Heat Index: -2°   Visibility: 10mi
Dew Point: -5°   Wind: 6mph
Humidity: 78%   Direction: 150°SSE
Pressure: 29.82"   Gusts: NA
Location:  48.88°N, 111.91°W
Report Text: KCTB 191256Z AUTO 15005KT 10SM CLR M02/M05 A2982 RMK AO2 SLP123 T10171050
Loading
Personal Weather Stations






























Interactive Weather Map New forecast layout! Learn more

10-Day Weather Forecast

Advertisements
Track Severe Weather on mobile